CYCK

Chatham Kent Airport

Chatham-Kent, Ontario, Canada
METAR CYCK 210400Z AUTO 18009KT 9SM FEW080 BKN110 OVC140 24/21 A2980 RMK SLP087 DENSITY ALT 1900FT
Observed Flight Rules
Jul-21 @ 04:00 UTC (23 minutes ago) Visual Flight Rules
Wind Visibility Clouds
180° at 9 knots 9 miles
  • Few at 8,000' AGL
  • Broken at 11,000' AGL
  • Overcast at 14,000' AGL
Temperatures Readings
Current 24°C / 75°F
Dewpoint 21°C / 70°F
Humidity 83%
Altimeter 29.8" Hg
Pressure 1008.7 hPa
Elevation 198
METAR CYCK 210400Z AUTO 18009KT 9SM FEW080 BKN110 OVC140 24/21 A2980 RMK SLP087 DENSITY ALT 1900FT
Observed Flight Rules
Jul-21 @ 04:00 UTC
(23 minutes ago)
VFR
Wind Visibility
180° at 9 knots 9 miles
Clouds
  • Few at 8,000' AGL
  • Broken at 11,000' AGL
  • Overcast at 14,000' AGL
Temperature Dewpoint
24°C / 75°F 21°C / 70°F
Humidity Altimeter Pressure
83% 29.8" Hg 1008.7 hPa